createdAt,value
2019-04-21T00:01:14.575Z,3.91
2019-04-21T00:03:50.196Z,3.78
2019-04-21T00:06:36.811Z,3.65
2019-04-21T00:11:39.102Z,3.66
2019-04-21T00:13:56.386Z,3.60
2019-04-21T00:16:19.228Z,3.53
2019-04-21T00:19:07.195Z,3.48
2019-04-21T00:21:38.600Z,3.48
2019-04-21T00:24:20.296Z,3.46
2019-04-21T00:26:57.483Z,3.45
2019-04-21T00:29:34.013Z,3.39
2019-04-21T00:31:54.989Z,3.37
2019-04-21T00:34:11.185Z,3.36
2019-04-21T00:36:51.535Z,3.34
2019-04-21T00:39:36.994Z,3.32
2019-04-21T00:41:58.959Z,3.25
2019-04-21T00:44:22.451Z,3.23
2019-04-21T00:46:55.832Z,3.29
2019-04-21T00:49:31.182Z,3.31
2019-04-21T00:52:11.414Z,3.32
2019-04-21T00:54:49.875Z,3.35
2019-04-21T00:57:13.083Z,3.22
2019-04-21T00:59:40.413Z,3.22
2019-04-21T01:02:09.884Z,3.19
2019-04-21T01:04:43.210Z,3.16
2019-04-21T01:07:12.489Z,3.10
2019-04-21T01:09:32.724Z,3.00
2019-04-21T01:12:07.852Z,2.89
2019-04-21T01:14:46.967Z,2.84
2019-04-21T01:17:14.569Z,2.83
2019-04-21T01:19:37.080Z,2.85
2019-04-21T01:21:48.302Z,2.84
2019-04-21T01:24:21.931Z,2.72
2019-04-21T01:26:56.779Z,2.72
2019-04-21T01:29:44.138Z,2.68
2019-04-21T01:32:10.509Z,2.69
2019-04-21T01:34:39.192Z,2.60
2019-04-21T01:37:04.094Z,2.55
2019-04-21T01:39:42.816Z,2.54
2019-04-21T01:42:11.346Z,2.56
2019-04-21T01:44:41.919Z,2.50
2019-04-21T01:47:02.827Z,2.51
2019-04-21T01:49:28.456Z,2.56
2019-04-21T01:55:03.128Z,2.66
2019-04-21T01:57:46.978Z,2.62
2019-04-21T02:00:08.456Z,2.56
2019-04-21T02:02:54.664Z,2.56
2019-04-21T02:05:26.425Z,2.59
2019-04-21T02:07:44.329Z,2.59
2019-04-21T02:10:17.786Z,2.54
2019-04-21T02:12:45.943Z,2.44
2019-04-21T02:15:38.026Z,2.52
2019-04-21T02:17:47.017Z,2.51
2019-04-21T02:20:12.332Z,2.51
2019-04-21T02:23:06.007Z,2.40
2019-04-21T02:25:21.796Z,2.35
2019-04-21T02:27:54.782Z,2.32
2019-04-21T02:30:29.660Z,2.32
2019-04-21T02:33:03.876Z,2.26
2019-04-21T02:40:30.227Z,2.22
2019-04-21T02:50:30.461Z,1.88
2019-04-21T02:53:01.347Z,1.86
2019-04-21T03:00:34.552Z,1.71
2019-04-21T03:03:06.429Z,1.80
2019-04-21T03:08:25.316Z,1.81
2019-04-21T03:10:53.402Z,1.78
2019-04-21T03:13:24.502Z,1.72
2019-04-21T03:16:01.248Z,1.69
2019-04-21T03:20:52.873Z,1.69
2019-04-21T03:28:22.666Z,1.72
2019-04-21T03:34:05.609Z,1.82
2019-04-21T03:36:18.207Z,1.82
2019-04-21T03:38:18.852Z,1.81
2019-04-21T03:40:47.414Z,1.81
2019-04-21T03:43:20.265Z,1.79
2019-04-21T03:45:51.399Z,1.67
2019-04-21T03:48:21.647Z,1.60
2019-04-21T03:53:18.526Z,1.42
2019-04-21T04:06:28.761Z,1.43
2019-04-21T04:09:11.094Z,1.37
2019-04-21T04:14:17.721Z,1.36
2019-04-21T04:19:01.647Z,1.54
2019-04-21T04:26:37.447Z,1.52
2019-04-21T04:34:04.469Z,1.59
2019-04-21T04:39:36.213Z,1.62
2019-04-21T04:42:12.556Z,1.64
2019-04-21T04:44:50.010Z,1.67
2019-04-21T04:47:12.281Z,1.70
2019-04-21T04:49:43.292Z,1.71
2019-04-21T04:52:28.559Z,1.72
2019-04-21T04:57:22.162Z,1.88
2019-04-21T05:02:11.337Z,1.98
2019-04-21T05:09:31.986Z,2.11
2019-04-21T05:12:05.995Z,2.15
2019-04-21T05:14:32.676Z,2.20
2019-04-21T05:22:08.208Z,2.55
2019-04-21T05:24:25.457Z,2.60
2019-04-21T05:26:50.761Z,2.70
2019-04-21T05:29:17.971Z,2.86
2019-04-21T05:32:00.394Z,3.02
2019-04-21T05:34:31.608Z,3.14
2019-04-21T05:37:10.388Z,3.23
2019-04-21T05:39:33.610Z,3.36
2019-04-21T05:41:55.202Z,3.54
2019-04-21T05:44:58.827Z,3.72
2019-04-21T05:47:20.388Z,3.88
2019-04-21T05:49:41.419Z,4.03
2019-04-21T05:52:05.454Z,4.18
2019-04-21T05:54:44.116Z,4.45
2019-04-21T05:57:09.910Z,4.45
2019-04-21T05:59:56.032Z,4.64
2019-04-21T06:07:18.859Z,5.29
2019-04-21T06:09:53.796Z,5.44
2019-04-21T06:12:14.661Z,5.64
2019-04-21T06:14:52.202Z,5.83
2019-04-21T06:17:19.295Z,5.99
2019-04-21T06:22:07.549Z,6.38
2019-04-21T06:25:08.956Z,6.57
2019-04-21T06:27:14.805Z,6.80
2019-04-21T06:29:46.582Z,7.21
2019-04-21T06:32:37.520Z,7.21
2019-04-21T06:34:56.524Z,7.43
2019-04-21T06:37:35.987Z,7.64
2019-04-21T06:42:13.263Z,8.03
2019-04-21T06:44:54.105Z,8.33
2019-04-21T06:47:28.389Z,8.56
2019-04-21T06:49:44.369Z,8.78
2019-04-21T06:52:29.851Z,9.01
2019-04-21T06:54:50.747Z,9.25
2019-04-21T06:57:16.582Z,9.76
2019-04-21T06:59:43.636Z,9.76
2019-04-21T07:02:31.886Z,10.01
2019-04-21T07:04:46.483Z,10.24
2019-04-21T07:07:13.046Z,10.40
2019-04-21T07:09:42.897Z,10.56
2019-04-21T07:12:12.598Z,10.73
2019-04-21T07:14:45.132Z,10.99
2019-04-21T07:17:19.330Z,11.13
2019-04-21T07:19:49.899Z,11.24
2019-04-21T07:22:21.176Z,11.38
2019-04-21T07:24:45.817Z,11.58
2019-04-21T07:27:17.579Z,11.77
2019-04-21T07:29:47.486Z,11.99
2019-04-21T07:32:20.720Z,12.08
2019-04-21T07:34:46.147Z,12.24
2019-04-21T07:37:13.915Z,12.45
2019-04-21T07:39:46.643Z,12.62
2019-04-21T07:42:09.921Z,12.71
2019-04-21T07:44:36.532Z,12.86
2019-04-21T07:47:15.656Z,12.98
2019-04-21T07:49:53.528Z,13.05
2019-04-21T07:52:28.584Z,13.15
2019-04-21T07:55:12.582Z,13.28
2019-04-21T07:57:28.089Z,13.41
2019-04-21T08:00:09.300Z,13.45
2019-04-21T08:02:29.339Z,13.65
2019-04-21T08:05:02.396Z,13.95
2019-04-21T08:07:37.899Z,14.11
2019-04-21T08:09:57.022Z,14.22
2019-04-21T08:12:25.595Z,14.24
2019-04-21T08:15:01.495Z,14.38
2019-04-21T08:17:30.788Z,14.53
2019-04-21T08:19:53.622Z,14.54
2019-04-21T08:22:30.745Z,14.68
2019-04-21T08:24:56.409Z,14.82
2019-04-21T08:27:37.302Z,14.91
2019-04-21T08:30:00.985Z,15.10
2019-04-21T08:32:36.290Z,15.23
2019-04-21T08:35:14.794Z,15.36
2019-04-21T08:37:27.587Z,15.52
2019-04-21T08:40:04.934Z,15.58
2019-04-21T08:42:26.694Z,15.68
2019-04-21T08:45:00.265Z,15.77
2019-04-21T08:47:28.470Z,15.72
2019-04-21T08:49:56.924Z,15.91
2019-04-21T08:52:37.066Z,16.03
2019-04-21T08:55:15.536Z,16.23
2019-04-21T08:58:00.395Z,16.18
2019-04-21T09:00:26.545Z,16.28
2019-04-21T09:03:03.750Z,16.26
2019-04-21T09:05:31.304Z,16.26
2019-04-21T09:07:57.382Z,16.24
2019-04-21T09:10:28.352Z,16.34
2019-04-21T09:13:00.228Z,16.60
2019-04-21T09:15:24.882Z,16.62
2019-04-21T09:17:49.205Z,16.67
2019-04-21T09:20:32.727Z,16.70
2019-04-21T09:23:02.242Z,16.78
2019-04-21T09:25:33.381Z,16.69
2019-04-21T09:28:00.660Z,16.80
2019-04-21T09:30:11.022Z,17.11
2019-04-21T09:32:40.384Z,17.31
2019-04-21T09:35:11.260Z,17.43
2019-04-21T09:37:47.344Z,17.53
2019-04-21T09:40:09.022Z,17.64
2019-04-21T09:42:46.972Z,17.84
2019-04-21T09:45:10.023Z,18.02
2019-04-21T09:47:45.026Z,18.05
2019-04-21T09:50:09.589Z,18.04
2019-04-21T09:52:45.125Z,18.22
2019-04-21T09:55:14.296Z,18.27
2019-04-21T09:57:44.756Z,18.30
2019-04-21T10:00:13.064Z,18.29
2019-04-21T10:02:48.245Z,18.36
2019-04-21T10:05:07.815Z,18.50
2019-04-21T10:07:40.516Z,18.45
2019-04-21T10:10:08.186Z,18.52
2019-04-21T10:12:37.313Z,18.61
2019-04-21T10:15:06.264Z,18.58
2019-04-21T10:17:52.397Z,18.75
2019-04-21T10:20:20.660Z,18.95
2019-04-21T10:22:49.028Z,19.21
2019-04-21T10:25:18.561Z,19.41
2019-04-21T10:27:47.276Z,19.28
2019-04-21T10:30:16.248Z,19.16
2019-04-21T10:32:44.481Z,19.18
2019-04-21T10:35:13.008Z,19.25
2019-04-21T10:37:49.806Z,19.42
2019-04-21T10:40:11.763Z,19.49
2019-04-21T10:42:40.438Z,19.61
2019-04-21T10:45:08.770Z,19.87
2019-04-21T10:47:37.045Z,19.79
2019-04-21T10:50:09.024Z,19.51
2019-04-21T10:52:55.250Z,19.43
2019-04-21T10:55:40.449Z,19.73
2019-04-21T10:58:11.219Z,19.84
2019-04-21T11:00:42.059Z,19.85
2019-04-21T11:03:27.174Z,19.61
2019-04-21T11:05:57.008Z,19.71
2019-04-21T11:08:30.748Z,19.83
2019-04-21T11:10:56.083Z,19.94
2019-04-21T11:13:24.309Z,19.88
2019-04-21T11:15:52.966Z,20.02
2019-04-21T11:18:21.927Z,20.04
2019-04-21T11:20:51.127Z,20.03
2019-04-21T11:23:22.259Z,20.03
2019-04-21T11:25:49.575Z,19.95
2019-04-21T11:28:18.622Z,19.95
2019-04-21T11:30:46.908Z,20.03
2019-04-21T11:33:15.436Z,20.02
2019-04-21T11:35:43.751Z,20.01
2019-04-21T11:38:18.073Z,19.98
2019-04-21T11:40:43.467Z,19.94
2019-04-21T11:43:11.715Z,19.95
2019-04-21T11:45:40.210Z,19.87
2019-04-21T11:48:10.466Z,19.74
2019-04-21T11:50:39.182Z,19.79
2019-04-21T11:53:08.403Z,20.02
2019-04-21T11:55:39.789Z,20.24
2019-04-21T11:58:07.699Z,20.23
2019-04-21T12:00:35.912Z,19.96
2019-04-21T12:03:04.183Z,20.14
2019-04-21T12:05:33.042Z,20.13
2019-04-21T12:08:02.009Z,19.90
2019-04-21T12:10:31.400Z,19.94
2019-04-21T12:12:59.642Z,20.10
2019-04-21T12:15:29.098Z,20.26
2019-04-21T12:17:57.403Z,20.39
2019-04-21T12:20:26.441Z,20.37
2019-04-21T12:22:54.938Z,20.41
2019-04-21T12:25:27.382Z,20.52
2019-04-21T12:27:56.099Z,20.38
2019-04-21T12:30:24.432Z,20.39
2019-04-21T12:32:58.097Z,20.31
2019-04-21T12:35:26.425Z,20.36
2019-04-21T12:37:55.021Z,20.35
2019-04-21T12:40:24.458Z,20.26
2019-04-21T12:42:52.937Z,20.29
2019-04-21T12:45:22.074Z,20.26
2019-04-21T12:47:52.010Z,20.43
2019-04-21T12:50:21.461Z,20.48
2019-04-21T12:52:49.906Z,20.40
2019-04-21T12:55:19.613Z,20.29
2019-04-21T12:57:47.897Z,20.06
2019-04-21T13:00:18.473Z,20.08
2019-04-21T13:02:47.743Z,20.03
2019-04-21T13:05:16.004Z,20.04
2019-04-21T13:07:45.602Z,19.98
2019-04-21T13:10:16.154Z,19.82
2019-04-21T13:12:44.441Z,19.52
2019-04-21T13:15:13.639Z,19.69
2019-04-21T13:17:44.467Z,19.83
2019-04-21T13:20:11.914Z,19.71
2019-04-21T13:22:40.117Z,19.55
2019-04-21T13:25:09.628Z,19.49
2019-04-21T13:27:38.773Z,19.38
2019-04-21T13:30:14.684Z,19.22
2019-04-21T13:32:43.122Z,19.16
2019-04-21T13:35:12.818Z,19.16
2019-04-21T13:37:41.558Z,19.20
2019-04-21T13:40:49.926Z,19.11
2019-04-21T13:43:04.087Z,19.07
2019-04-21T13:45:32.210Z,19.09
2019-04-21T13:48:00.980Z,19.22
2019-04-21T13:50:29.191Z,19.30
2019-04-21T13:52:58.675Z,19.38
2019-04-21T13:55:27.543Z,19.48
2019-04-21T13:57:56.752Z,19.68
2019-04-21T14:00:25.029Z,19.70
2019-04-21T14:02:54.577Z,19.60
2019-04-21T14:05:24.354Z,19.51
2019-04-21T14:07:54.377Z,19.52
2019-04-21T14:10:23.881Z,19.49
2019-04-21T14:12:52.096Z,19.57
2019-04-21T14:15:22.022Z,19.59
2019-04-21T14:17:50.906Z,19.65
2019-04-21T14:20:19.596Z,19.51
2019-04-21T14:22:47.987Z,19.55
2019-04-21T14:25:17.387Z,19.69
2019-04-21T14:27:49.059Z,19.75
2019-04-21T14:30:16.772Z,19.79
2019-04-21T14:32:46.094Z,19.93
2019-04-21T14:35:14.991Z,19.97
2019-04-21T14:37:44.497Z,20.02
2019-04-21T14:40:18.987Z,20.04
2019-04-21T14:42:44.349Z,20.11
2019-04-21T14:45:14.527Z,20.16
2019-04-21T14:47:46.344Z,20.20
2019-04-21T14:50:18.966Z,20.22
2019-04-21T14:52:48.807Z,20.14
2019-04-21T14:55:22.891Z,20.04
2019-04-21T14:57:51.592Z,19.96
2019-04-21T15:00:21.039Z,19.72
2019-04-21T15:02:49.715Z,19.66
2019-04-21T15:05:19.633Z,19.74
2019-04-21T15:07:48.931Z,19.81
2019-04-21T15:10:23.190Z,19.94
2019-04-21T15:12:49.792Z,20.05
2019-04-21T15:15:18.126Z,20.11
2019-04-21T15:17:46.400Z,20.15
2019-04-21T15:20:16.293Z,20.06
2019-04-21T15:22:46.110Z,19.83
2019-04-21T15:25:14.400Z,19.68
2019-04-21T15:27:43.129Z,19.59
2019-04-21T15:30:11.293Z,19.68
2019-04-21T15:32:40.237Z,19.79
2019-04-21T15:35:09.187Z,19.84
2019-04-21T15:37:37.957Z,19.95
2019-04-21T15:40:21.100Z,19.93
2019-04-21T15:42:36.777Z,19.83
2019-04-21T15:45:06.369Z,19.86
2019-04-21T15:47:36.017Z,19.92
2019-04-21T15:50:10.201Z,19.94
2019-04-21T15:52:35.840Z,19.86
2019-04-21T15:55:06.691Z,19.82
2019-04-21T15:57:52.344Z,19.89
2019-04-21T16:00:25.036Z,19.86
2019-04-21T16:02:53.301Z,19.68
2019-04-21T16:05:22.516Z,19.45
2019-04-21T16:07:51.991Z,19.52
2019-04-21T16:10:30.987Z,19.54
2019-04-21T16:12:51.662Z,19.45
2019-04-21T16:15:20.886Z,19.36
2019-04-21T16:17:49.298Z,19.37
2019-04-21T16:20:17.850Z,19.35
2019-04-21T16:22:46.519Z,19.36
2019-04-21T16:25:15.053Z,19.43
2019-04-21T16:27:43.504Z,19.53
2019-04-21T16:30:12.239Z,19.57
2019-04-21T16:32:41.942Z,19.64
2019-04-21T16:35:12.476Z,19.71
2019-04-21T16:37:41.446Z,20.17
2019-04-21T16:40:09.723Z,22.68
2019-04-21T16:42:38.498Z,25.13
2019-04-21T16:45:07.433Z,26.53
2019-04-21T16:47:35.946Z,27.58
2019-04-21T16:50:07.760Z,27.91
2019-04-21T16:52:40.361Z,27.93
2019-04-21T16:55:23.185Z,28.34
2019-04-21T16:58:04.627Z,28.17
2019-04-21T17:00:36.472Z,25.68
2019-04-21T17:02:56.791Z,23.19
2019-04-21T17:05:24.996Z,23.04
2019-04-21T17:07:53.299Z,25.34
2019-04-21T17:10:22.429Z,26.60
2019-04-21T17:12:51.329Z,27.15
2019-04-21T17:15:38.898Z,27.48
2019-04-21T17:18:10.150Z,26.05
2019-04-21T17:20:35.460Z,26.08
2019-04-21T17:22:51.396Z,26.34
2019-04-21T17:25:21.584Z,25.92
2019-04-21T17:27:51.112Z,24.53
2019-04-21T17:30:19.793Z,23.17
2019-04-21T17:32:49.989Z,21.73
2019-04-21T17:35:19.820Z,20.29
2019-04-21T17:37:48.328Z,19.44
2019-04-21T17:40:21.972Z,18.92
2019-04-21T17:42:59.783Z,18.52
2019-04-21T17:45:21.253Z,18.17
2019-04-21T17:47:57.183Z,17.91
2019-04-21T17:50:21.064Z,17.68
2019-04-21T17:53:03.160Z,17.47
2019-04-21T17:55:36.742Z,17.35
2019-04-21T17:58:15.016Z,17.21
2019-04-21T18:01:13.907Z,17.04
2019-04-21T18:03:40.725Z,16.88
2019-04-21T18:05:50.260Z,16.75
2019-04-21T18:08:29.501Z,16.64
2019-04-21T18:10:53.207Z,16.53
2019-04-21T18:13:12.003Z,16.44
2019-04-21T18:15:54.391Z,16.35
2019-04-21T18:18:08.358Z,16.23
2019-04-21T18:20:39.831Z,16.10
2019-04-21T18:23:37.901Z,15.95
2019-04-21T18:26:01.390Z,15.79
2019-04-21T18:28:22.827Z,15.61
2019-04-21T18:30:54.269Z,15.49
2019-04-21T18:33:30.006Z,15.38
2019-04-21T18:36:02.431Z,15.20
2019-04-21T18:39:04.117Z,15.05
2019-04-21T18:41:36.558Z,14.94
2019-04-21T18:47:16.850Z,14.68
2019-04-21T18:49:33.277Z,14.52
2019-04-21T18:52:16.023Z,14.40
2019-04-21T18:54:49.778Z,14.30
2019-04-21T18:57:16.649Z,14.20
2019-04-21T18:59:36.179Z,14.09
2019-04-21T19:02:08.063Z,14.00
2019-04-21T19:04:35.272Z,13.88
2019-04-21T19:07:17.997Z,13.78
2019-04-21T19:10:11.297Z,13.71
2019-04-21T19:12:35.701Z,13.68
2019-04-21T19:14:55.014Z,13.63
2019-04-21T19:17:57.074Z,13.57
2019-04-21T19:19:56.469Z,13.52
2019-04-21T19:22:21.736Z,13.44
2019-04-21T19:24:52.314Z,13.38
2019-04-21T19:27:25.174Z,13.32
2019-04-21T19:29:58.209Z,13.24
2019-04-21T19:34:37.823Z,13.11
2019-04-21T19:37:10.850Z,13.00
2019-04-21T19:39:48.839Z,12.91
2019-04-21T19:42:18.298Z,12.78
2019-04-21T19:44:52.083Z,12.69
2019-04-21T19:47:28.330Z,12.58
2019-04-21T19:49:55.154Z,12.48
2019-04-21T19:52:11.328Z,12.37
2019-04-21T19:54:37.956Z,12.26
2019-04-21T19:57:04.911Z,12.17
2019-04-21T19:59:40.541Z,12.08
2019-04-21T20:02:04.601Z,11.98
2019-04-21T20:04:40.722Z,11.92
2019-04-21T20:07:17.494Z,11.85
2019-04-21T20:09:50.463Z,11.77
2019-04-21T20:12:20.063Z,11.73
2019-04-21T20:14:55.762Z,11.66
2019-04-21T20:17:13.710Z,11.59
2019-04-21T20:19:34.174Z,11.52
2019-04-21T20:22:03.159Z,11.42
2019-04-21T20:24:33.797Z,11.35
2019-04-21T20:27:11.485Z,11.34
2019-04-21T20:29:49.878Z,11.32
2019-04-21T20:32:25.683Z,11.26
2019-04-21T20:34:56.174Z,11.13
2019-04-21T20:37:21.340Z,11.11
2019-04-21T20:39:45.584Z,11.04
2019-04-21T20:42:15.634Z,10.97
2019-04-21T20:44:55.388Z,10.90
2019-04-21T20:47:11.365Z,10.83
2019-04-21T20:49:41.515Z,10.75
2019-04-21T20:52:23.988Z,10.74
2019-04-21T20:54:48.182Z,10.68
2019-04-21T20:57:21.919Z,10.62
2019-04-21T20:59:43.857Z,10.51
2019-04-21T21:02:20.079Z,10.41
2019-04-21T21:04:44.676Z,10.34
2019-04-21T21:07:34.629Z,10.30
2019-04-21T21:10:03.123Z,10.24
2019-04-21T21:12:39.175Z,10.23
2019-04-21T21:14:52.954Z,10.17
2019-04-21T21:17:39.484Z,10.08
2019-04-21T21:20:05.575Z,10.01
2019-04-21T21:22:18.305Z,9.95
2019-04-21T21:24:50.569Z,9.91
2019-04-21T21:27:19.573Z,9.90
2019-04-21T21:29:56.569Z,9.85
2019-04-21T21:32:25.817Z,9.79
2019-04-21T21:34:56.844Z,9.68
2019-04-21T21:37:35.111Z,9.62
2019-04-21T21:39:57.139Z,9.58
2019-04-21T21:42:09.861Z,9.53
2019-04-21T21:44:40.726Z,9.45
2019-04-21T21:47:23.093Z,9.38
2019-04-21T21:49:54.217Z,9.33
2019-04-21T21:52:18.372Z,9.28
2019-04-21T21:54:38.130Z,9.25
2019-04-21T21:57:06.612Z,9.23
2019-04-21T21:59:38.238Z,9.18
2019-04-21T22:02:05.277Z,9.12
2019-04-21T22:04:36.077Z,9.07
2019-04-21T22:07:08.206Z,9.00
2019-04-21T22:09:34.489Z,8.96
2019-04-21T22:12:06.595Z,8.91
2019-04-21T22:14:41.074Z,8.86
2019-04-21T22:17:16.205Z,8.87
2019-04-21T22:20:00.398Z,8.87
2019-04-21T22:22:17.951Z,8.77
2019-04-21T22:24:46.846Z,8.71
2019-04-21T22:27:05.244Z,8.66
2019-04-21T22:29:38.201Z,8.59
2019-04-21T22:32:12.592Z,8.55
2019-04-21T22:34:42.395Z,8.53
2019-04-21T22:37:21.193Z,8.54
2019-04-21T22:39:49.609Z,8.47
2019-04-21T22:42:13.430Z,8.39
2019-04-21T22:44:34.416Z,8.35
2019-04-21T22:47:12.139Z,8.32
2019-04-21T22:49:34.859Z,8.29
2019-04-21T22:52:13.519Z,8.27
2019-04-21T22:54:38.146Z,8.22
2019-04-21T22:57:11.759Z,8.18
2019-04-21T22:59:34.182Z,8.15
2019-04-21T23:02:06.478Z,8.12
2019-04-21T23:04:41.716Z,8.08
2019-04-21T23:07:10.110Z,8.04
2019-04-21T23:09:34.902Z,8.01
2019-04-21T23:12:04.923Z,7.96
2019-04-21T23:14:46.801Z,7.93
2019-04-21T23:17:24.305Z,7.90
2019-04-21T23:19:49.223Z,7.89
2019-04-21T23:22:21.432Z,7.87
2019-04-21T23:24:53.157Z,7.83
2019-04-21T23:27:14.150Z,7.80
2019-04-21T23:30:13.196Z,7.76
2019-04-21T23:32:19.578Z,7.74
2019-04-21T23:34:36.744Z,7.71
2019-04-21T23:37:10.572Z,7.74
2019-04-21T23:39:37.071Z,7.70
2019-04-21T23:42:06.030Z,7.70
2019-04-21T23:44:42.428Z,7.67
2019-04-21T23:47:08.633Z,7.67
2019-04-21T23:49:43.048Z,7.62
2019-04-21T23:52:08.154Z,7.59
2019-04-21T23:54:33.833Z,7.58
2019-04-21T23:57:11.068Z,7.58
2019-04-21T23:59:38.696Z,7.57
